createdAt,value
2023-03-19T00:00:53.857Z,100683.13
2023-03-19T00:03:21.389Z,100684.34
2023-03-19T00:05:54.798Z,100691.06
2023-03-19T00:08:22.753Z,100689.59
2023-03-19T00:10:50.998Z,100684.28
2023-03-19T00:13:18.924Z,100689.50
2023-03-19T00:15:47.275Z,100694.72
2023-03-19T00:18:14.754Z,100693.25
2023-03-19T00:20:42.771Z,100686.72
2023-03-19T00:23:09.964Z,100689.56
2023-03-19T00:25:37.218Z,100696.22
2023-03-19T00:28:04.651Z,100693.75
2023-03-19T00:30:31.919Z,100701.38
2023-03-19T00:32:59.240Z,100699.41
2023-03-19T00:35:27.064Z,100710.13
2023-03-19T00:37:55.289Z,100699.25
2023-03-19T00:40:22.627Z,100711.09
2023-03-19T00:42:50.244Z,100710.91
2023-03-19T00:45:18.046Z,100705.19
2023-03-19T00:47:45.341Z,100714.41
2023-03-19T00:50:13.833Z,100709.22
2023-03-19T00:52:41.642Z,100709.94
2023-03-19T00:55:09.502Z,100714.81
2023-03-19T00:57:37.217Z,100708.59
2023-03-19T01:00:05.300Z,100715.91
2023-03-19T01:02:32.607Z,100714.41
2023-03-19T01:04:59.944Z,100716.03
2023-03-19T01:07:27.336Z,100722.81
2023-03-19T01:09:56.705Z,100722.03
2023-03-19T01:12:23.916Z,100721.56
2023-03-19T01:14:51.307Z,100732.78
2023-03-19T01:17:18.606Z,100734.56
2023-03-19T01:19:46.046Z,100740.25
2023-03-19T01:22:14.323Z,100729.16
2023-03-19T01:24:45.963Z,100728.03
2023-03-19T01:27:13.317Z,100727.25
2023-03-19T01:29:40.606Z,100730.66
2023-03-19T01:32:19.903Z,100731.81
2023-03-19T01:35:05.872Z,100735.50
2023-03-19T01:37:33.131Z,100733.22
2023-03-19T01:40:00.366Z,100740.13
2023-03-19T01:42:27.947Z,100737.97
2023-03-19T01:45:38.181Z,100733.75
2023-03-19T01:48:49.635Z,100732.47
2023-03-19T01:51:22.011Z,100735.22
2023-03-19T01:54:01.182Z,100734.94
2023-03-19T01:56:45.321Z,100733.25
2023-03-19T01:59:51.554Z,100739.28
2023-03-19T02:02:38.717Z,100727.09
2023-03-19T02:05:25.430Z,100726.13
2023-03-19T02:07:57.062Z,100729.56
2023-03-19T02:10:25.117Z,100721.41
2023-03-19T02:12:52.424Z,100714.28
2023-03-19T02:15:20.041Z,100709.84
2023-03-19T02:17:47.896Z,100710.03
2023-03-19T02:20:24.872Z,100707.31
2023-03-19T02:23:09.519Z,100698.22
2023-03-19T02:25:46.263Z,100703.56
2023-03-19T02:28:19.422Z,100708.44
2023-03-19T02:30:50.185Z,100712.50
2023-03-19T02:33:18.838Z,100708.63
2023-03-19T02:35:48.043Z,100716.41
2023-03-19T02:38:17.716Z,100715.88
2023-03-19T02:40:49.616Z,100719.31
2023-03-19T02:43:16.874Z,100725.97
2023-03-19T02:45:44.768Z,100724.00
2023-03-19T02:48:12.159Z,100724.50
2023-03-19T02:50:39.439Z,100721.94
2023-03-19T02:53:06.877Z,100721.28
2023-03-19T02:55:34.195Z,100722.44
2023-03-19T02:58:01.546Z,100733.50
2023-03-19T03:00:29.688Z,100732.03
2023-03-19T03:02:58.090Z,100734.44
2023-03-19T03:05:25.666Z,100735.75
2023-03-19T03:07:53.859Z,100730.41
2023-03-19T03:10:21.213Z,100727.97
2023-03-19T03:12:48.785Z,100744.06
2023-03-19T03:15:16.361Z,100747.31
2023-03-19T03:17:45.584Z,100746.00
2023-03-19T03:20:15.165Z,100745.50
2023-03-19T03:22:42.874Z,100741.94
2023-03-19T03:25:10.650Z,100742.44
2023-03-19T03:27:38.630Z,100741.78
2023-03-19T03:30:08.381Z,100742.94
2023-03-19T03:32:37.059Z,100736.09
2023-03-19T03:35:05.833Z,100735.94
2023-03-19T03:37:33.060Z,100743.41
2023-03-19T03:40:00.331Z,100737.56
2023-03-19T03:42:27.739Z,100748.44
2023-03-19T03:44:55.047Z,100744.06
2023-03-19T03:47:22.590Z,100745.69
2023-03-19T03:49:50.083Z,100760.00
2023-03-19T03:52:17.755Z,100744.53
2023-03-19T03:54:45.034Z,100748.28
2023-03-19T03:57:12.395Z,100745.69
2023-03-19T03:59:39.705Z,100744.25
2023-03-19T04:02:07.441Z,100757.22
2023-03-19T04:04:34.864Z,100761.13
2023-03-19T04:07:02.212Z,100755.13
2023-03-19T04:09:41.219Z,100767.94
2023-03-19T04:12:09.518Z,100764.84
2023-03-19T04:14:37.416Z,100755.41
2023-03-19T04:17:05.216Z,100761.59
2023-03-19T04:19:32.746Z,100759.16
2023-03-19T04:22:00.058Z,100756.91
2023-03-19T04:24:27.797Z,100752.50
2023-03-19T04:26:55.129Z,100758.50
2023-03-19T04:29:23.108Z,100756.56
2023-03-19T04:31:51.228Z,100762.72
2023-03-19T04:34:19.631Z,100766.63
2023-03-19T04:36:47.347Z,100768.22
2023-03-19T04:39:14.620Z,100765.00
2023-03-19T04:41:42.234Z,100765.34
2023-03-19T04:44:25.202Z,100767.09
2023-03-19T04:46:53.699Z,100763.66
2023-03-19T04:49:22.458Z,100764.47
2023-03-19T04:51:51.603Z,100768.88
2023-03-19T04:54:19.022Z,100766.28
2023-03-19T04:56:46.473Z,100769.41
2023-03-19T04:59:13.710Z,100773.16
2023-03-19T05:01:41.205Z,100781.44
2023-03-19T05:04:11.326Z,100776.91
2023-03-19T05:06:39.303Z,100779.50
2023-03-19T05:09:07.713Z,100785.19
2023-03-19T05:11:35.151Z,100777.50
2023-03-19T05:14:05.618Z,100780.91
2023-03-19T05:16:45.737Z,100785.44
2023-03-19T05:19:13.080Z,100790.31
2023-03-19T05:21:40.879Z,100796.31
2023-03-19T05:24:08.490Z,100797.72
2023-03-19T05:26:38.179Z,100799.84
2023-03-19T05:29:31.806Z,100805.00
2023-03-19T05:32:11.851Z,100819.88
2023-03-19T05:34:40.224Z,100819.41
2023-03-19T05:37:08.581Z,100802.59
2023-03-19T05:39:36.400Z,100808.50
2023-03-19T05:42:08.075Z,100809.28
2023-03-19T05:44:35.408Z,100813.88
2023-03-19T05:47:13.347Z,100817.28
2023-03-19T05:49:46.092Z,100818.06
2023-03-19T05:52:13.848Z,100829.16
2023-03-19T05:54:41.636Z,100832.09
2023-03-19T05:57:27.834Z,100835.81
2023-03-19T06:00:21.724Z,100828.13
2023-03-19T06:02:49.360Z,100831.50
2023-03-19T06:05:25.978Z,100834.28
2023-03-19T06:07:57.016Z,100830.44
2023-03-19T06:10:36.458Z,100849.44
2023-03-19T06:13:08.344Z,100848.38
2023-03-19T06:15:42.060Z,100843.75
2023-03-19T06:18:38.386Z,100848.63
2023-03-19T06:21:09.916Z,100850.09
2023-03-19T06:23:37.433Z,100846.84
2023-03-19T06:26:06.945Z,100861.78
2023-03-19T06:28:45.402Z,100859.53
2023-03-19T06:31:14.741Z,100864.78
2023-03-19T06:33:58.177Z,100876.75
2023-03-19T06:36:32.358Z,100882.13
2023-03-19T06:38:59.876Z,100879.66
2023-03-19T06:41:27.397Z,100883.06
2023-03-19T06:44:01.706Z,100883.88
2023-03-19T06:46:29.118Z,100882.63
2023-03-19T06:48:57.125Z,100877.94
2023-03-19T06:51:24.421Z,100889.44
2023-03-19T06:53:51.833Z,100895.66
2023-03-19T06:56:19.114Z,100898.38
2023-03-19T06:58:46.410Z,100894.16
2023-03-19T07:01:14.308Z,100887.50
2023-03-19T07:03:41.803Z,100894.56
2023-03-19T07:06:09.120Z,100889.22
2023-03-19T07:08:36.388Z,100892.34
2023-03-19T07:11:05.282Z,100897.34
2023-03-19T07:13:33.242Z,100899.09
2023-03-19T07:16:01.008Z,100898.00
2023-03-19T07:18:28.704Z,100896.91
2023-03-19T07:20:56.085Z,100898.34
2023-03-19T07:23:23.509Z,100903.31
2023-03-19T07:25:50.835Z,100906.38
2023-03-19T07:28:18.138Z,100904.75
2023-03-19T07:30:45.546Z,100907.03
2023-03-19T07:33:14.404Z,100903.25
2023-03-19T07:35:42.159Z,100898.25
2023-03-19T07:38:09.432Z,100899.81
2023-03-19T07:40:37.081Z,100905.41
2023-03-19T07:43:04.377Z,100903.13
2023-03-19T07:45:31.709Z,100901.38
2023-03-19T07:48:01.672Z,100895.16
2023-03-19T07:50:30.874Z,100908.81
2023-03-19T07:52:58.516Z,100911.09
2023-03-19T07:55:26.028Z,100908.03
2023-03-19T07:57:53.349Z,100903.00
2023-03-19T08:00:20.949Z,100907.31
2023-03-19T08:02:48.319Z,100907.47
2023-03-19T08:05:16.258Z,100917.94
2023-03-19T08:07:45.055Z,100922.94
2023-03-19T08:10:12.454Z,100912.84
2023-03-19T08:12:41.257Z,100913.56
2023-03-19T08:15:10.658Z,100904.03
2023-03-19T08:17:38.479Z,100914.41
2023-03-19T08:20:11.110Z,100914.91
2023-03-19T08:22:39.050Z,100921.28
2023-03-19T08:25:07.070Z,100923.66
2023-03-19T08:27:36.107Z,100916.16
2023-03-19T08:30:04.753Z,100918.66
2023-03-19T08:32:32.060Z,100918.34
2023-03-19T08:34:59.330Z,100919.00
2023-03-19T08:37:26.588Z,100922.63
2023-03-19T08:39:53.931Z,100929.75
2023-03-19T08:42:22.683Z,100943.13
2023-03-19T08:44:50.627Z,100945.53
2023-03-19T08:47:17.857Z,100952.56
2023-03-19T08:49:45.468Z,100955.16
2023-03-19T08:52:12.835Z,100963.47
2023-03-19T08:54:40.215Z,100977.78
2023-03-19T08:57:07.464Z,100976.13
2023-03-19T08:59:34.885Z,100982.53
2023-03-19T09:02:02.295Z,100992.03
2023-03-19T09:04:29.645Z,100998.31
2023-03-19T09:06:56.954Z,100999.94
2023-03-19T09:09:24.664Z,101003.94
2023-03-19T09:11:52.003Z,101010.78
2023-03-19T09:14:20.705Z,101010.84
2023-03-19T09:16:47.850Z,101010.75
2023-03-19T09:19:15.336Z,101018.22
2023-03-19T09:21:42.718Z,101021.59
2023-03-19T09:24:10.249Z,101017.19
2023-03-19T09:26:37.580Z,101013.88
2023-03-19T09:29:04.966Z,101015.16
2023-03-19T09:31:32.375Z,101006.34
2023-03-19T09:33:59.785Z,101011.50
2023-03-19T09:36:27.344Z,101016.69
2023-03-19T09:38:57.558Z,101019.63
2023-03-19T09:41:43.405Z,101027.19
2023-03-19T09:44:14.900Z,101024.44
2023-03-19T09:46:46.408Z,101021.34
2023-03-19T09:49:22.527Z,101019.13
2023-03-19T09:52:05.155Z,101021.34
2023-03-19T09:55:04.459Z,101033.69
2023-03-19T09:57:39.803Z,101030.97
2023-03-19T10:00:27.250Z,101034.13
2023-03-19T10:03:04.384Z,101036.22
2023-03-19T10:05:45.442Z,101041.38
2023-03-19T10:08:43.089Z,101040.47
2023-03-19T10:11:49.160Z,101043.16
2023-03-19T10:14:22.280Z,101043.34
2023-03-19T10:16:52.071Z,101045.84
2023-03-19T10:19:23.403Z,101057.84
2023-03-19T10:21:57.065Z,101074.34
2023-03-19T10:24:25.850Z,101081.88
2023-03-19T10:26:58.447Z,101068.25
2023-03-19T10:29:26.987Z,101075.50
2023-03-19T10:32:08.490Z,101084.91
2023-03-19T10:34:37.874Z,101084.34
2023-03-19T10:37:07.914Z,101089.34
2023-03-19T10:39:37.198Z,101084.53
2023-03-19T10:42:08.952Z,101087.59
2023-03-19T10:44:46.136Z,101082.31
2023-03-19T10:47:14.905Z,101090.78
2023-03-19T10:49:42.560Z,101081.75
2023-03-19T10:52:29.375Z,101094.00
2023-03-19T10:55:02.923Z,101097.38
2023-03-19T10:57:31.951Z,101088.75
2023-03-19T11:00:06.236Z,101077.63
2023-03-19T11:02:34.105Z,101086.91
2023-03-19T11:05:31.687Z,101088.75
2023-03-19T11:08:02.348Z,101078.56
2023-03-19T11:10:32.200Z,101094.75
2023-03-19T11:13:16.153Z,101106.88
2023-03-19T11:15:47.390Z,101117.38
2023-03-19T11:18:27.707Z,101114.44
2023-03-19T11:20:59.960Z,101122.59
2023-03-19T11:23:29.095Z,101120.09
2023-03-19T11:26:01.670Z,101127.34
2023-03-19T11:28:33.650Z,101121.44
2023-03-19T11:31:37.375Z,101108.75
2023-03-19T11:34:23.071Z,101116.78
2023-03-19T11:37:15.465Z,101098.91
2023-03-19T11:40:01.028Z,101100.38
2023-03-19T11:42:28.453Z,101116.28
2023-03-19T11:45:04.697Z,101117.22
2023-03-19T11:47:37.757Z,101108.53
2023-03-19T11:50:09.480Z,101124.84
2023-03-19T11:53:08.063Z,101121.03
2023-03-19T11:55:53.211Z,101120.50
2023-03-19T11:59:02.151Z,101127.81
2023-03-19T12:01:51.362Z,101131.19
2023-03-19T12:04:49.447Z,101134.25
2023-03-19T12:07:31.741Z,101131.00
2023-03-19T12:10:20.790Z,101135.06
2023-03-19T12:13:11.252Z,101125.59
2023-03-19T12:15:44.880Z,101135.00
2023-03-19T12:18:33.681Z,101125.38
2023-03-19T12:21:17.580Z,101127.63
2023-03-19T12:23:59.783Z,101128.03
2023-03-19T12:26:51.034Z,101120.50
2023-03-19T12:29:30.143Z,101122.09
2023-03-19T12:32:14.030Z,101122.72
2023-03-19T12:34:52.628Z,101122.81
2023-03-19T12:37:27.383Z,101130.19
2023-03-19T12:40:16.664Z,101132.97
2023-03-19T12:42:44.025Z,101116.63
2023-03-19T12:45:19.907Z,101123.31
2023-03-19T12:47:47.952Z,101124.16
2023-03-19T12:50:17.434Z,101122.00
2023-03-19T12:52:49.546Z,101124.44
2023-03-19T12:55:20.140Z,101121.63
2023-03-19T12:58:31.241Z,101133.69
2023-03-19T13:01:03.427Z,101130.78
2023-03-19T13:03:35.191Z,101139.25
2023-03-19T13:06:09.138Z,101140.19
2023-03-19T13:08:52.842Z,101139.78
2023-03-19T13:11:59.747Z,101148.66
2023-03-19T13:14:44.095Z,101140.09
2023-03-19T13:17:34.513Z,101129.66
2023-03-19T13:20:08.118Z,101129.25
2023-03-19T13:22:37.348Z,101152.53
2023-03-19T13:25:05.731Z,101153.88
2023-03-19T13:27:34.591Z,101160.00
2023-03-19T13:30:01.995Z,101170.72
2023-03-19T13:32:44.682Z,101159.28
2023-03-19T13:35:21.536Z,101166.25
2023-03-19T13:37:55.522Z,101164.78
2023-03-19T13:40:47.422Z,101169.97
2023-03-19T13:43:29.910Z,101164.88
2023-03-19T13:46:12.382Z,101171.50
2023-03-19T13:48:45.678Z,101173.25
2023-03-19T13:51:12.886Z,101166.19
2023-03-19T13:53:52.138Z,101181.66
2023-03-19T13:56:29.431Z,101198.09
2023-03-19T13:59:15.739Z,101186.31
2023-03-19T14:01:47.774Z,101188.56
2023-03-19T14:04:24.254Z,101201.25
2023-03-19T14:07:14.733Z,101198.53
2023-03-19T14:09:47.882Z,101199.44
2023-03-19T14:12:18.182Z,101194.34
2023-03-19T14:14:48.834Z,101198.63
2023-03-19T14:17:37.846Z,101196.72
2023-03-19T14:20:12.529Z,101190.22
2023-03-19T14:22:59.054Z,101197.94
2023-03-19T14:25:30.787Z,101196.00
2023-03-19T14:28:01.045Z,101195.41
2023-03-19T14:30:40.775Z,101196.81
2023-03-19T14:33:17.903Z,101191.09
2023-03-19T14:35:46.683Z,101195.72
2023-03-19T14:38:18.369Z,101187.03
2023-03-19T14:40:47.456Z,101196.94
2023-03-19T14:43:39.399Z,101196.34
2023-03-19T14:46:23.525Z,101196.47
2023-03-19T14:49:09.488Z,101200.53
2023-03-19T14:51:55.417Z,101201.06
2023-03-19T14:54:37.968Z,101205.75
2023-03-19T14:57:37.738Z,101219.66
2023-03-19T15:00:07.405Z,101209.31
2023-03-19T15:02:39.305Z,101218.31
2023-03-19T15:05:09.253Z,101207.16
2023-03-19T15:07:39.188Z,101216.44
2023-03-19T15:10:08.793Z,101209.41
2023-03-19T15:12:51.392Z,101210.97
2023-03-19T15:15:57.849Z,101207.09
2023-03-19T15:18:26.003Z,101209.41
2023-03-19T15:20:54.555Z,101205.56
2023-03-19T15:23:28.370Z,101207.28
2023-03-19T15:25:58.329Z,101212.09
2023-03-19T15:28:28.775Z,101222.53
2023-03-19T15:31:31.658Z,101213.53
2023-03-19T15:34:18.038Z,101199.72
2023-03-19T15:36:46.621Z,101212.06
2023-03-19T15:39:17.067Z,101209.69
2023-03-19T15:41:46.613Z,101214.25
2023-03-19T15:44:19.525Z,101218.06
2023-03-19T15:46:47.211Z,101208.41
2023-03-19T15:49:30.381Z,101218.50
2023-03-19T15:52:03.324Z,101216.50
2023-03-19T15:54:32.437Z,101219.66
2023-03-19T15:56:59.659Z,101225.34
2023-03-19T15:59:30.096Z,101226.88
2023-03-19T16:02:00.480Z,101228.31
2023-03-19T16:04:38.462Z,101223.84
2023-03-19T16:07:26.321Z,101234.09
2023-03-19T16:09:53.819Z,101245.19
2023-03-19T16:12:41.046Z,101233.75
2023-03-19T16:15:29.833Z,101243.41
2023-03-19T16:18:30.454Z,101243.53
2023-03-19T16:21:04.140Z,101240.91
2023-03-19T16:23:34.183Z,101265.19
2023-03-19T16:26:16.961Z,101254.47
2023-03-19T16:28:48.436Z,101250.91
2023-03-19T16:31:28.948Z,101259.63
2023-03-19T16:33:57.045Z,101263.91
2023-03-19T16:36:28.742Z,101261.16
2023-03-19T16:39:32.944Z,101272.91
2023-03-19T16:42:09.435Z,101279.34
2023-03-19T16:44:40.626Z,101285.56
2023-03-19T16:47:12.538Z,101282.63
2023-03-19T16:49:39.825Z,101287.47
2023-03-19T16:52:13.607Z,101288.50
2023-03-19T16:54:40.834Z,101311.72
2023-03-19T16:57:11.459Z,101308.56
2023-03-19T16:59:39.168Z,101307.16
2023-03-19T17:02:13.986Z,101316.16
2023-03-19T17:04:41.897Z,101317.69
2023-03-19T17:07:09.739Z,101331.38
2023-03-19T17:09:37.142Z,101331.91
2023-03-19T17:12:06.642Z,101343.53
2023-03-19T17:14:34.633Z,101348.44
2023-03-19T17:17:06.929Z,101348.13
2023-03-19T17:19:35.667Z,101351.84
2023-03-19T17:22:03.181Z,101361.47
2023-03-19T17:24:32.729Z,101365.03
2023-03-19T17:27:02.492Z,101382.50
2023-03-19T17:29:31.339Z,101388.53
2023-03-19T17:32:02.892Z,101382.78
2023-03-19T17:34:31.965Z,101392.47
2023-03-19T17:37:01.149Z,101391.72
2023-03-19T17:39:32.129Z,101404.34
2023-03-19T17:41:59.686Z,101408.47
2023-03-19T17:44:27.944Z,101410.06
2023-03-19T17:46:56.081Z,101412.47
2023-03-19T17:49:31.659Z,101422.25
2023-03-19T17:51:59.608Z,101436.06
2023-03-19T17:54:27.917Z,101432.19
2023-03-19T17:56:56.014Z,101436.78
2023-03-19T17:59:23.597Z,101442.47
2023-03-19T18:01:52.126Z,101441.38
2023-03-19T18:04:21.020Z,101437.88
2023-03-19T18:06:55.944Z,101449.81
2023-03-19T18:09:32.810Z,101451.94
2023-03-19T18:12:00.173Z,101457.31
2023-03-19T18:14:27.554Z,101463.25
2023-03-19T18:16:54.733Z,101460.72
2023-03-19T18:19:22.254Z,101463.72
2023-03-19T18:21:49.452Z,101456.69
2023-03-19T18:24:16.761Z,101458.81
2023-03-19T18:26:45.125Z,101476.44
2023-03-19T18:29:12.451Z,101479.88
2023-03-19T18:31:41.434Z,101480.28
2023-03-19T18:34:11.203Z,101484.94
2023-03-19T18:36:39.229Z,101492.91
2023-03-19T18:39:17.207Z,101491.94
2023-03-19T18:41:44.546Z,101486.44
2023-03-19T18:44:12.285Z,101495.59
2023-03-19T18:46:40.690Z,101489.00
2023-03-19T18:49:21.055Z,101506.31
2023-03-19T18:52:01.635Z,101498.63
2023-03-19T18:54:31.266Z,101516.22
2023-03-19T18:57:00.612Z,101519.75
2023-03-19T18:59:30.893Z,101519.63
2023-03-19T19:02:02.501Z,101520.59
2023-03-19T19:04:30.134Z,101519.56
2023-03-19T19:06:57.422Z,101533.25
2023-03-19T19:09:24.804Z,101531.34
2023-03-19T19:11:54.481Z,101542.66
2023-03-19T19:14:23.541Z,101534.88
2023-03-19T19:16:51.638Z,101553.53
2023-03-19T19:19:23.023Z,101549.94
2023-03-19T19:21:51.548Z,101551.47
2023-03-19T19:24:18.861Z,101547.78
2023-03-19T19:26:48.211Z,101546.25
2023-03-19T19:29:26.698Z,101545.41
2023-03-19T19:31:54.689Z,101552.22
2023-03-19T19:34:22.601Z,101546.84
2023-03-19T19:36:50.956Z,101559.47
2023-03-19T19:39:18.516Z,101558.38
2023-03-19T19:41:46.789Z,101552.19
2023-03-19T19:44:18.936Z,101562.72
2023-03-19T19:46:46.317Z,101566.94
2023-03-19T19:49:15.017Z,101561.19
2023-03-19T19:51:42.415Z,101572.38
2023-03-19T19:54:09.735Z,101574.81
2023-03-19T19:56:37.610Z,101575.47
2023-03-19T19:59:06.826Z,101579.97
2023-03-19T20:01:34.472Z,101583.00
2023-03-19T20:04:04.197Z,101587.44
2023-03-19T20:06:31.943Z,101589.59
2023-03-19T20:08:59.429Z,101589.63
2023-03-19T20:11:26.781Z,101596.97
2023-03-19T20:13:57.154Z,101591.94
2023-03-19T20:16:27.042Z,101588.19
2023-03-19T20:18:55.181Z,101592.84
2023-03-19T20:21:22.910Z,101599.44
2023-03-19T20:23:53.114Z,101595.69
2023-03-19T20:26:21.726Z,101608.91
2023-03-19T20:28:49.407Z,101609.78
2023-03-19T20:31:29.719Z,101607.56
2023-03-19T20:33:59.031Z,101605.00
2023-03-19T20:36:26.769Z,101601.97
2023-03-19T20:38:54.283Z,101606.56
2023-03-19T20:41:23.739Z,101605.41
2023-03-19T20:43:51.531Z,101603.69
2023-03-19T20:46:20.514Z,101606.53
2023-03-19T20:48:48.464Z,101601.81
2023-03-19T20:51:22.709Z,101609.81
2023-03-19T20:53:51.757Z,101614.41
2023-03-19T20:56:24.154Z,101608.53
2023-03-19T20:58:51.820Z,101605.88
2023-03-19T21:01:19.832Z,101611.94
2023-03-19T21:03:47.635Z,101617.88
2023-03-19T21:06:15.284Z,101619.19
2023-03-19T21:08:45.789Z,101611.31
2023-03-19T21:11:18.984Z,101616.69
2023-03-19T21:13:47.997Z,101620.16
2023-03-19T21:16:21.099Z,101618.13
2023-03-19T21:18:48.981Z,101618.91
2023-03-19T21:21:17.134Z,101624.13
2023-03-19T21:24:19.398Z,101629.84
2023-03-19T21:26:47.086Z,101630.00
2023-03-19T21:29:18.273Z,101634.66
2023-03-19T21:31:45.951Z,101638.59
2023-03-19T21:34:14.530Z,101637.97
2023-03-19T21:36:41.836Z,101641.53
2023-03-19T21:39:09.048Z,101662.38
2023-03-19T21:41:37.342Z,101662.72
2023-03-19T21:44:13.478Z,101664.28
2023-03-19T21:46:41.485Z,101665.75
2023-03-19T21:49:11.784Z,101666.97
2023-03-19T21:51:38.951Z,101681.81
2023-03-19T21:54:06.163Z,101673.81
2023-03-19T21:56:37.705Z,101674.41
2023-03-19T21:59:12.773Z,101664.41
2023-03-19T22:01:40.659Z,101673.19
2023-03-19T22:04:08.224Z,101665.53
2023-03-19T22:06:37.621Z,101666.09
2023-03-19T22:09:04.842Z,101672.06
2023-03-19T22:11:34.984Z,101663.13
2023-03-19T22:14:06.868Z,101664.75
2023-03-19T22:16:34.460Z,101667.81
2023-03-19T22:19:01.892Z,101665.50
2023-03-19T22:21:32.915Z,101668.75
2023-03-19T22:24:00.343Z,101656.69
2023-03-19T22:26:33.792Z,101653.31
2023-03-19T22:29:03.478Z,101653.94
2023-03-19T22:31:32.070Z,101649.66
2023-03-19T22:33:59.542Z,101649.41
2023-03-19T22:36:26.879Z,101644.34
2023-03-19T22:38:54.141Z,101656.09
2023-03-19T22:41:36.648Z,101648.22
2023-03-19T22:44:07.452Z,101650.78
2023-03-19T22:46:34.847Z,101659.38
2023-03-19T22:49:02.491Z,101657.38
2023-03-19T22:51:29.901Z,101660.38
2023-03-19T22:53:57.150Z,101646.94
2023-03-19T22:56:24.402Z,101646.91
2023-03-19T22:58:52.314Z,101640.28
2023-03-19T23:01:23.134Z,101630.06
2023-03-19T23:03:50.989Z,101616.63
2023-03-19T23:06:29.569Z,101622.66
2023-03-19T23:08:57.420Z,101627.06
2023-03-19T23:11:25.128Z,101637.34
2023-03-19T23:13:54.627Z,101635.88
2023-03-19T23:16:24.709Z,101637.91
2023-03-19T23:18:52.461Z,101638.44
2023-03-19T23:21:20.878Z,101633.59
2023-03-19T23:23:48.199Z,101634.06
2023-03-19T23:26:30.299Z,101642.34
2023-03-19T23:29:02.127Z,101643.78
2023-03-19T23:31:29.628Z,101643.25
2023-03-19T23:33:56.931Z,101648.69
2023-03-19T23:36:24.317Z,101650.59
2023-03-19T23:38:51.955Z,101640.69
2023-03-19T23:41:26.108Z,101650.31
2023-03-19T23:43:53.614Z,101641.19
2023-03-19T23:46:21.337Z,101647.59
2023-03-19T23:48:48.723Z,101646.28
2023-03-19T23:51:17.406Z,101654.69
2023-03-19T23:53:44.668Z,101654.72
2023-03-19T23:56:24.319Z,101652.19
2023-03-19T23:58:52.727Z,101657.66
